Time;durP1;ratioP1;P1;durP2;ratioP2;P2;SDS_P1;SDS_P2;PMS_P1;PMS_P2;Temp;Humidity;BMP_temperature;BMP_pressure;BME280_temperature;BME280_humidity;BME280_pressure;Samples;Min_cycle;Max_cycle;Signal;HPM_P1;HPM_P2
2023/12/25 00:00:33;;;;;;;111.38;106.53;;;;;;;13.53;73.54;100496.22;5027671;28;20030;-73
2023/12/25 00:02:58;;;;;;;111.65;106.90;;;;;;;13.52;73.20;100487.28;5026691;28;20541;-71
2023/12/25 00:05:23;;;;;;;115.70;110.50;;;;;;;13.52;73.24;100484.56;5024616;28;20034;-72
2023/12/25 00:07:49;;;;;;;110.97;106.22;;;;;;;13.51;73.43;100493.78;5014239;28;20026;-72
2023/12/25 00:10:14;;;;;;;109.22;104.43;;;;;;;13.49;73.54;100495.94;5027662;28;20069;-71
2023/12/25 00:12:40;;;;;;;114.00;108.80;;;;;;;13.49;73.47;100492.44;5017660;28;20100;-73
2023/12/25 00:15:06;;;;;;;112.75;107.90;;;;;;;13.48;73.22;100482.66;5015554;28;20479;-72
2023/12/25 00:17:31;;;;;;;114.53;109.53;;;;;;;13.48;73.19;100483.47;5031370;28;20108;-72
2023/12/25 00:19:56;;;;;;;116.38;111.28;;;;;;;13.49;73.16;100474.25;5034368;28;20524;-72
2023/12/25 00:22:22;;;;;;;115.32;110.22;;;;;;;13.47;73.49;100491.88;5023177;28;20057;-72
2023/12/25 00:24:47;;;;;;;113.13;108.13;;;;;;;13.47;73.47;100483.75;5030868;28;20060;-74
2023/12/25 00:27:13;;;;;;;113.93;108.93;;;;;;;13.48;73.26;100488.91;5036443;28;20473;-73
2023/12/25 00:29:38;;;;;;;107.90;103.18;;;;;;;13.50;73.56;100469.63;5033426;28;20099;-73
2023/12/25 00:32:04;;;;;;;115.47;110.22;;;;;;;13.48;73.14;100463.66;5030587;28;20033;-72
2023/12/25 00:34:29;;;;;;;113.13;107.82;;;;;;;13.46;73.03;100468.56;5021217;28;20037;-73
2023/12/25 00:36:55;;;;;;;113.53;108.63;;;;;;;13.46;73.47;100476.69;5029554;28;20036;-71
2023/12/25 00:39:20;;;;;;;116.22;111.07;;;;;;;13.46;73.53;100480.22;5029380;28;20075;-73
2023/12/25 00:41:46;;;;;;;118.35;113.18;;;;;;;13.45;73.27;100475.84;5035201;28;20037;-74
2023/12/25 00:44:11;;;;;;;113.22;108.35;;;;;;;13.44;73.29;100479.66;5033099;28;20092;-72
2023/12/25 00:46:37;;;;;;;115.50;110.47;;;;;;;13.42;73.05;100498.91;5024856;28;20111;-73
2023/12/25 00:49:02;;;;;;;113.20;108.30;;;;;;;13.40;73.27;100501.06;5032942;28;20057;-72
2023/12/25 00:51:28;;;;;;;114.47;109.47;;;;;;;13.41;73.45;100507.34;5025180;28;20045;-73
2023/12/25 00:53:54;;;;;;;115.10;109.97;;;;;;;13.40;73.37;100506.50;5022675;28;20084;-73
2023/12/25 00:56:19;;;;;;;115.60;110.53;;;;;;;13.42;73.65;100501.63;5020542;28;20030;-72
2023/12/25 00:58:44;;;;;;;109.15;104.15;;;;;;;13.40;73.39;100498.34;5022321;28;20030;-72
2023/12/25 01:01:10;;;;;;;109.10;104.35;;;;;;;13.42;73.60;100495.38;5004521;28;20045;-71
2023/12/25 01:03:36;;;;;;;110.70;105.88;;;;;;;13.42;73.79;100493.47;5017429;28;20092;-72
2023/12/25 01:06:01;;;;;;;111.93;107.13;;;;;;;13.43;73.33;100499.75;5037195;28;20033;-72
2023/12/25 01:08:26;;;;;;;110.45;105.55;;;;;;;13.42;73.58;100508.94;5030951;28;20131;-71
2023/12/25 01:10:52;;;;;;;109.55;104.90;;;;;;;13.44;73.32;100511.41;5029639;28;20120;-73
2023/12/25 01:13:17;;;;;;;110.13;105.28;;;;;;;13.42;73.54;100509.75;5033160;28;20033;-73
2023/12/25 01:15:43;;;;;;;107.25;102.60;;;;;;;13.43;73.09;100502.47;5018892;28;20040;-72
2023/12/25 01:18:08;;;;;;;110.32;105.57;;;;;;;13.42;73.44;100511.66;5035417;28;20473;-73
2023/12/25 01:20:34;;;;;;;108.75;103.55;;;;;;;13.45;73.56;100507.59;5028669;28;20609;-73
2023/12/25 01:22:59;;;;;;;114.22;109.03;;;;;;;13.47;73.53;100516.31;5005911;28;20042;-72
2023/12/25 01:25:24;;;;;;;108.13;103.22;;;;;;;13.48;73.45;100520.63;5021229;28;20394;-73
2023/12/25 01:27:50;;;;;;;111.55;106.47;;;;;;;13.48;73.36;100512.50;5017661;28;20045;-74
2023/12/25 01:30:15;;;;;;;107.82;103.03;;;;;;;13.47;73.48;100506.25;5024498;28;20697;-72
2023/12/25 01:32:41;;;;;;;110.22;105.32;;;;;;;13.46;73.50;100498.41;5016968;28;20033;-72
2023/12/25 01:35:06;;;;;;;111.20;106.30;;;;;;;13.46;73.44;100509.25;5024562;28;20045;-71
2023/12/25 01:37:32;;;;;;;113.28;108.10;;;;;;;13.48;73.88;100507.91;5027926;28;20034;-72
2023/12/25 01:39:57;;;;;;;114.75;109.75;;;;;;;13.49;73.28;100520.38;5031916;28;20386;-72
2023/12/25 01:42:23;;;;;;;116.28;111.07;;;;;;;13.50;73.46;100510.31;5033027;28;20401;-73
2023/12/25 01:44:48;;;;;;;111.50;106.65;;;;;;;13.50;72.84;100496.75;5017116;28;20493;-72
2023/12/25 01:47:17;;;;;;;112.75;107.88;;;;;;;13.47;73.13;100506.25;5026766;28;20498;-73
2023/12/25 01:49:43;;;;;;;111.35;106.57;;;;;;;13.48;73.55;100515.19;5031800;28;20108;-72
2023/12/25 01:52:09;;;;;;;109.13;104.35;;;;;;;13.48;72.91;100512.50;5021819;28;20140;-73
2023/12/25 01:54:37;;;;;;;117.05;111.88;;;;;;;13.49;73.60;100520.38;5024018;28;20038;-72
2023/12/25 01:57:04;;;;;;;113.70;108.88;;;;;;;13.51;73.31;100504.66;5031558;28;20108;-71
2023/12/25 01:59:30;;;;;;;108.35;103.55;;;;;;;13.51;73.24;100509.25;5019730;28;20183;-73
2023/12/25 02:01:59;;;;;;;105.13;100.57;;;;;;;13.52;73.50;100521.75;5024940;28;20504;-71
2023/12/25 02:04:26;;;;;;;109.05;103.85;;;;;;;13.53;73.78;100510.63;5026198;28;20076;-71
2023/12/25 02:06:53;;;;;;;104.28;99.70;;;;;;;13.53;73.49;100515.22;5031755;28;20029;-73
2023/12/25 02:09:19;;;;;;;109.82;104.88;;;;;;;13.52;73.31;100511.69;5026961;28;20034;-73
2023/12/25 02:11:44;;;;;;;110.20;105.10;;;;;;;13.51;73.29;100523.63;5024501;28;20377;-73
2023/12/25 02:14:12;;;;;;;111.97;107.18;;;;;;;13.52;73.47;100538.03;5037643;28;20038;-72
2023/12/25 02:16:39;;;;;;;113.20;108.13;;;;;;;13.51;72.24;100536.41;5029921;28;20087;-71
2023/12/25 02:19:22;;;;;;;112.75;107.75;;;;;;;13.49;73.26;100528.50;5023644;28;20077;-72
2023/12/25 02:21:48;;;;;;;109.60;104.50;;;;;;;13.50;73.04;100526.63;5014242;28;20057;-72
2023/12/25 02:24:20;;;;;;;111.32;106.55;;;;;;;13.48;73.00;100528.78;5021967;28;20481;-72
2023/12/25 02:26:46;;;;;;;115.75;110.15;;;;;;;13.49;73.34;100544.78;5029266;28;20034;-74
2023/12/25 02:29:11;;;;;;;113.25;108.28;;;;;;;13.50;73.12;100548.31;5037379;28;20042;-72
2023/12/25 02:31:37;;;;;;;112.28;107.18;;;;;;;13.51;73.38;100547.25;5046482;28;20474;-73
2023/12/25 02:34:02;;;;;;;109.55;104.68;;;;;;;13.51;73.09;100547.25;5026738;28;20077;-73
2023/12/25 02:36:27;;;;;;;114.22;108.78;;;;;;;13.51;73.26;100537.22;5026807;28;20076;-72
2023/12/25 02:38:53;;;;;;;113.65;108.55;;;;;;;13.53;73.18;100540.47;5028573;28;20061;-72
2023/12/25 02:41:18;;;;;;;107.80;103.07;;;;;;;13.52;73.27;100548.88;5026412;28;20052;-72
2023/12/25 02:43:43;;;;;;;113.15;108.10;;;;;;;13.54;73.26;100546.72;5027416;28;20494;-70
2023/12/25 02:46:09;;;;;;;116.93;111.60;;;;;;;13.56;72.96;100566.25;5040524;28;20043;-73
2023/12/25 02:48:34;;;;;;;114.40;109.30;;;;;;;13.56;73.26;100561.66;5030643;28;20036;-72
2023/12/25 02:50:59;;;;;;;116.53;111.45;;;;;;;13.57;73.51;100557.03;5023118;28;20179;-72
2023/12/25 02:53:25;;;;;;;110.28;105.50;;;;;;;13.57;73.23;100562.47;5019968;28;20183;-72
2023/12/25 02:55:50;;;;;;;114.15;109.18;;;;;;;13.60;73.67;100567.34;5019874;28;20042;-72
2023/12/25 02:58:15;;;;;;;117.25;112.05;;;;;;;13.59;73.42;100563.81;5024678;28;20115;-72
2023/12/25 03:00:41;;;;;;;119.05;113.75;;;;;;;13.60;72.87;100553.78;5028424;28;20034;-71
2023/12/25 03:03:06;;;;;;;115.20;110.22;;;;;;;13.59;72.91;100552.16;5019088;28;20042;-72
2023/12/25 03:05:31;;;;;;;117.25;112.03;;;;;;;13.60;73.48;100551.06;5011196;28;20034;-72
2023/12/25 03:07:57;;;;;;;115.05;110.05;;;;;;;13.60;73.39;100559.19;5024220;28;20124;-72
2023/12/25 03:10:22;;;;;;;117.05;111.97;;;;;;;13.61;72.92;100563.56;5025334;28;20470;-71
2023/12/25 03:12:48;;;;;;;120.63;115.47;;;;;;;13.61;73.45;100556.22;5016080;28;20040;-71
2023/12/25 03:15:13;;;;;;;116.60;111.55;;;;;;;13.63;73.12;100564.09;5028141;28;20041;-73
2023/12/25 03:17:39;;;;;;;115.30;110.22;;;;;;;13.62;73.22;100547.00;5031303;28;20096;-72
2023/12/25 03:20:05;;;;;;;113.53;108.63;;;;;;;13.58;72.73;100554.06;5020292;28;20064;-72
2023/12/25 03:22:30;;;;;;;114.03;109.05;;;;;;;13.57;73.21;100567.88;5021623;28;20045;-72
2023/12/25 03:24:57;;;;;;;113.22;108.30;;;;;;;13.55;73.25;100556.47;5016488;28;20064;-72
2023/12/25 03:27:23;;;;;;;110.35;105.60;;;;;;;13.55;72.67;100562.72;5023988;28;20030;-72
2023/12/25 03:29:48;;;;;;;111.32;106.43;;;;;;;13.54;73.35;100566.53;5023226;28;20564;-73
2023/12/25 03:32:14;;;;;;;119.57;114.45;;;;;;;13.56;73.03;100574.41;5030680;28;20125;-72
2023/12/25 03:34:47;;;;;;;114.20;109.07;;;;;;;13.59;73.22;100576.56;5029042;28;20103;-71
2023/12/25 03:37:12;;;;;;;111.53;106.65;;;;;;;13.59;73.22;100582.81;5027685;28;20044;-72
2023/12/25 03:39:38;;;;;;;115.47;109.80;;;;;;;13.61;73.39;100585.28;5023481;28;20038;-73
2023/12/25 03:42:03;;;;;;;117.32;112.25;;;;;;;13.60;73.13;100578.19;5017623;28;20066;-73
2023/12/25 03:44:29;;;;;;;117.22;112.13;;;;;;;13.60;73.02;100575.47;5034791;28;20481;-71
2023/12/25 03:46:54;;;;;;;116.07;110.93;;;;;;;13.57;72.82;100579.56;5016562;28;20124;-73
2023/12/25 03:49:19;;;;;;;112.70;107.85;;;;;;;13.58;72.97;100583.06;5025801;28;20049;-72
2023/12/25 03:51:45;;;;;;;115.65;110.43;;;;;;;13.57;72.96;100582.25;5034379;28;20042;-71
2023/12/25 03:54:10;;;;;;;115.88;110.60;;;;;;;13.55;72.93;100570.84;5017261;28;20439;-73
2023/12/25 03:56:35;;;;;;;120.55;115.15;;;;;;;13.55;73.04;100578.19;5015380;28;20053;-72
2023/12/25 03:59:02;;;;;;;113.57;108.68;;;;;;;13.56;73.11;100580.66;5032801;28;20037;-72
2023/12/25 04:01:28;;;;;;;113.40;108.43;;;;;;;13.55;72.84;100578.19;5017511;28;20030;-71
2023/12/25 04:03:53;;;;;;;115.72;110.70;;;;;;;13.56;73.30;100577.94;5018438;28;20108;-71
2023/12/25 04:06:24;;;;;;;111.93;106.50;;;;;;;13.55;72.61;100562.72;5026787;28;20112;-71
2023/12/25 04:08:49;;;;;;;117.63;112.35;;;;;;;13.53;73.10;100574.91;5023634;28;20025;-71
2023/12/25 04:11:22;;;;;;;112.85;107.85;;;;;;;13.55;73.30;100572.75;5024810;28;20029;-72
2023/12/25 04:13:51;;;;;;;113.28;108.28;;;;;;;13.54;73.12;100555.66;5017526;28;20482;-72
2023/12/25 04:16:26;;;;;;;108.47;103.82;;;;;;;13.54;72.91;100549.44;5016407;28;20107;-73
2023/12/25 04:18:53;;;;;;;113.70;108.53;;;;;;;13.53;72.58;100561.34;5033702;28;20082;-72
2023/12/25 04:21:27;;;;;;;109.43;104.72;;;;;;;13.52;73.20;100560.53;5033829;28;20037;-72
2023/12/25 04:23:54;;;;;;;117.70;112.50;;;;;;;13.55;73.04;100564.63;5024081;28;20045;-73
2023/12/25 04:26:20;;;;;;;113.63;108.72;;;;;;;13.57;73.08;100562.47;5034949;28;20061;-71
2023/12/25 04:28:46;;;;;;;111.50;106.50;;;;;;;13.58;72.91;100558.66;5013775;28;20390;-71
2023/12/25 04:31:12;;;;;;;114.68;109.63;;;;;;;13.59;72.81;100552.16;5038573;28;20049;-74
2023/12/25 04:33:37;;;;;;;108.10;103.38;;;;;;;13.59;72.60;100558.38;5019046;28;20497;-72
2023/12/25 04:36:03;;;;;;;115.10;110.03;;;;;;;13.59;72.92;100571.97;5019659;28;20048;-72
2023/12/25 04:38:29;;;;;;;115.57;110.50;;;;;;;13.60;73.40;100561.91;5016633;28;20359;-72
2023/12/25 04:40:54;;;;;;;118.70;113.50;;;;;;;13.61;72.38;100563.56;5013049;28;20057;-72
2023/12/25 04:43:20;;;;;;;111.38;106.43;;;;;;;13.61;73.16;100567.09;5030426;28;20053;-72
2023/12/25 04:45:45;;;;;;;119.03;113.82;;;;;;;13.60;72.71;100568.16;5017387;28;20370;-72
2023/12/25 04:48:11;;;;;;;111.00;106.07;;;;;;;13.58;72.85;100556.78;5023241;28;20041;-73
2023/12/25 04:50:36;;;;;;;113.43;108.50;;;;;;;13.61;72.94;100536.44;5019323;28;20045;-71
2023/12/25 04:53:02;;;;;;;113.13;108.28;;;;;;;13.60;72.64;100538.31;5020023;28;20510;-72
2023/12/25 04:55:30;;;;;;;113.28;108.35;;;;;;;13.58;72.43;100548.63;5043057;28;20041;-72
2023/12/25 04:57:56;;;;;;;115.57;110.28;;;;;;;13.56;73.03;100536.41;5034177;28;20029;-72
2023/12/25 05:00:22;;;;;;;112.35;107.53;;;;;;;13.56;72.91;100530.97;5022841;28;20034;-72
2023/12/25 05:02:47;;;;;;;120.63;115.43;;;;;;;13.58;73.11;100542.38;5022834;28;20390;-72
2023/12/25 05:05:13;;;;;;;108.47;103.72;;;;;;;13.57;72.58;100535.31;5023203;28;20521;-71
2023/12/25 05:07:38;;;;;;;116.00;110.97;;;;;;;13.56;72.80;100539.94;5025371;28;20030;-71
2023/12/25 05:10:04;;;;;;;112.05;107.20;;;;;;;13.56;72.76;100531.78;5031341;28;20042;-70
2023/12/25 05:12:30;;;;;;;114.00;109.07;;;;;;;13.55;72.90;100532.06;5028171;28;20030;-72
2023/12/25 05:14:55;;;;;;;112.53;107.57;;;;;;;13.56;72.89;100530.97;5039546;28;20101;-70
2023/12/25 05:17:21;;;;;;;106.53;101.97;;;;;;;13.54;72.53;100525.81;5033398;28;20045;-70
2023/12/25 05:19:46;;;;;;;111.40;106.43;;;;;;;13.56;73.04;100529.09;5020540;28;20034;-71
2023/12/25 05:22:12;;;;;;;106.32;101.78;;;;;;;13.56;72.29;100525.56;5041097;28;20049;-71
2023/12/25 05:24:38;;;;;;;110.22;105.38;;;;;;;13.55;72.63;100530.16;5024466;28;20045;-72
2023/12/25 05:27:03;;;;;;;112.22;107.35;;;;;;;13.57;72.62;100521.75;5021382;28;20030;-71
2023/12/25 05:29:28;;;;;;;116.43;111.43;;;;;;;13.57;72.25;100521.75;5044640;28;20039;-72
2023/12/25 05:31:54;;;;;;;116.18;111.10;;;;;;;13.57;72.53;100532.59;5022372;28;20107;-72
2023/12/25 05:34:19;;;;;;;109.68;104.97;;;;;;;13.55;72.68;100538.28;5025045;28;20042;-74
2023/12/25 05:36:44;;;;;;;111.03;106.22;;;;;;;13.55;72.37;100535.56;5033959;28;20038;-71
2023/12/25 05:39:10;;;;;;;110.65;105.90;;;;;;;13.53;72.58;100545.91;5035802;28;20128;-71
2023/12/25 05:41:36;;;;;;;112.13;107.35;;;;;;;13.52;72.86;100535.31;5017928;28;20466;-71
2023/12/25 05:44:01;;;;;;;115.90;110.80;;;;;;;13.53;72.73;100539.63;5027540;28;20397;-71
2023/12/25 05:46:26;;;;;;;106.07;101.45;;;;;;;13.52;72.16;100536.13;5038430;28;20132;-70
2023/12/25 05:48:52;;;;;;;113.60;108.60;;;;;;;13.53;72.55;100536.94;5024789;28;20029;-73
2023/12/25 05:51:18;;;;;;;111.47;106.72;;;;;;;13.50;72.54;100532.84;5036929;28;20091;-71
2023/12/25 05:53:43;;;;;;;109.65;104.93;;;;;;;13.50;72.54;100543.69;5037566;28;20135;-70
2023/12/25 05:56:09;;;;;;;108.85;104.13;;;;;;;13.51;73.04;100522.84;5033624;28;20037;-70
2023/12/25 05:58:34;;;;;;;111.07;106.32;;;;;;;13.53;72.87;100526.91;5038677;28;20025;-71
2023/12/25 06:01:00;;;;;;;114.57;109.40;;;;;;;13.53;72.66;100528.78;5027700;28;20046;-71
2023/12/25 06:03:26;;;;;;;108.30;103.65;;;;;;;13.55;72.79;100532.06;5029127;28;20044;-71
2023/12/25 06:05:52;;;;;;;108.53;103.75;;;;;;;13.54;72.80;100527.72;5013059;28;20044;-70
2023/12/25 06:08:17;;;;;;;110.75;105.90;;;;;;;13.53;72.71;100540.47;5018578;28;20030;-71
2023/12/25 06:10:43;;;;;;;109.90;104.85;;;;;;;13.50;72.58;100530.13;5027041;28;20501;-73
2023/12/25 06:13:08;;;;;;;116.35;111.35;;;;;;;13.51;72.86;100547.25;5031344;28;20044;-71
2023/12/25 06:15:33;;;;;;;111.05;106.25;;;;;;;13.51;72.95;100533.69;5030131;28;20068;-71
2023/12/25 06:17:59;;;;;;;105.03;100.30;;;;;;;13.50;72.79;100532.84;5019758;28;20037;-72
2023/12/25 06:20:25;;;;;;;109.57;104.85;;;;;;;13.50;72.58;100535.56;5045124;28;20382;-70
2023/12/25 06:22:50;;;;;;;110.38;105.57;;;;;;;13.51;73.19;100537.22;5049477;28;20045;-71
2023/12/25 06:25:16;;;;;;;109.88;105.10;;;;;;;13.51;72.79;100534.50;5049097;28;20029;-71
2023/12/25 06:27:41;;;;;;;107.82;103.18;;;;;;;13.51;72.89;100534.50;5040600;28;20075;-71
2023/12/25 06:30:07;;;;;;;107.03;102.43;;;;;;;13.53;72.93;100534.22;5037330;28;20041;-71
2023/12/25 06:32:32;;;;;;;107.28;102.57;;;;;;;13.52;72.65;100540.72;5038522;28;20072;-72
2023/12/25 06:34:58;;;;;;;113.10;108.10;;;;;;;13.52;72.79;100554.31;5016993;28;20040;-70
2023/12/25 06:37:23;;;;;;;108.97;104.32;;;;;;;13.54;73.25;100544.81;5017060;28;20028;-72
2023/12/25 06:39:49;;;;;;;110.80;106.00;;;;;;;13.55;72.70;100551.03;5031646;28;20223;-71
2023/12/25 06:42:14;;;;;;;116.38;111.28;;;;;;;13.52;72.68;100535.31;5016226;28;20034;-71
2023/12/25 06:44:40;;;;;;;106.57;101.95;;;;;;;13.50;73.01;100546.41;5050605;28;20044;-71
2023/12/25 06:47:06;;;;;;;112.30;107.35;;;;;;;13.49;72.92;100550.22;5037070;28;20037;-70
2023/12/25 06:49:31;;;;;;;105.60;101.00;;;;;;;13.50;72.46;100534.75;5025318;28;20040;-70
2023/12/25 06:51:57;;;;;;;111.35;106.47;;;;;;;13.48;72.85;100535.03;5031626;28;20033;-71
2023/12/25 06:54:22;;;;;;;110.57;105.82;;;;;;;13.49;73.30;100533.94;5033611;28;20056;-71
2023/12/25 06:56:48;;;;;;;108.57;103.80;;;;;;;13.49;73.27;100535.84;5038073;28;20048;-71
2023/12/25 06:59:13;;;;;;;111.20;106.45;;;;;;;13.50;73.14;100529.31;5019641;28;20037;-70
2023/12/25 07:01:39;;;;;;;114.32;109.20;;;;;;;13.51;72.98;100531.78;5027259;28;20034;-71
2023/12/25 07:04:05;;;;;;;113.07;108.10;;;;;;;13.51;73.00;100531.78;5037256;28;20140;-72
2023/12/25 07:06:31;;;;;;;111.63;106.75;;;;;;;13.53;73.06;100550.50;5020478;28;20029;-72
2023/12/25 07:08:56;;;;;;;108.75;103.88;;;;;;;13.52;73.00;100551.59;5037409;28;20119;-72
2023/12/25 07:11:21;;;;;;;110.68;105.93;;;;;;;13.53;73.28;100561.34;5025715;28;20112;-73
2023/12/25 07:13:47;;;;;;;113.72;108.72;;;;;;;13.55;73.05;100551.03;5016629;28;20061;-73
2023/12/25 07:16:23;;;;;;;112.70;107.63;;;;;;;13.54;72.86;100552.13;5041905;28;20438;-71
2023/12/25 07:18:51;;;;;;;110.70;105.90;;;;;;;13.53;73.16;100564.06;5031734;28;20042;-73
2023/12/25 07:21:17;;;;;;;111.90;106.97;;;;;;;13.52;72.97;100565.97;5032200;28;20041;-71
2023/12/25 07:23:42;;;;;;;109.25;104.25;;;;;;;13.54;73.07;100563.81;5036842;28;20064;-71
2023/12/25 07:26:08;;;;;;;109.07;104.25;;;;;;;13.54;72.90;100577.38;5036574;28;20040;-71
2023/12/25 07:28:33;;;;;;;114.78;109.75;;;;;;;13.54;72.96;100566.53;5025751;28;20042;-71
2023/12/25 07:31:00;;;;;;;113.80;108.60;;;;;;;13.56;73.23;100568.97;5016688;28;20025;-71
2023/12/25 07:33:26;;;;;;;111.63;106.32;;;;;;;13.57;73.23;100581.44;5024659;28;20072;-71
2023/12/25 07:35:52;;;;;;;114.03;109.07;;;;;;;13.57;72.83;100584.16;5045236;28;20520;-70
2023/12/25 07:38:18;;;;;;;115.80;110.75;;;;;;;13.55;72.93;100583.59;5025832;28;20132;-70
2023/12/25 07:40:43;;;;;;;111.93;106.85;;;;;;;13.56;73.06;100580.66;5034999;28;20029;-71
2023/12/25 07:43:10;;;;;;;112.85;107.82;;;;;;;13.58;73.01;100586.63;5039772;28;20075;-71
2023/12/25 07:45:36;;;;;;;117.43;112.30;;;;;;;13.60;72.89;100586.34;5039823;28;20025;-71
2023/12/25 07:48:02;;;;;;;107.10;102.32;;;;;;;13.63;73.07;100589.34;5036653;28;20041;-71
2023/12/25 07:50:27;;;;;;;113.07;108.15;;;;;;;13.64;73.29;100587.44;5056428;28;20043;-72
2023/12/25 07:52:52;;;;;;;114.38;109.30;;;;;;;13.65;73.18;100602.63;5040411;28;20033;-71
2023/12/25 07:55:18;;;;;;;117.85;112.70;;;;;;;13.64;72.99;100601.03;5017591;28;20432;-71
2023/12/25 07:57:43;;;;;;;110.90;106.00;;;;;;;13.63;72.90;100608.34;5035405;28;20029;-71
2023/12/25 08:00:10;;;;;;;112.78;107.78;;;;;;;13.64;72.98;100620.03;5039626;28;20043;-70
2023/12/25 08:02:35;;;;;;;115.88;110.75;;;;;;;13.66;72.86;100614.31;5035796;28;20052;-71
2023/12/25 08:05:02;;;;;;;115.32;110.28;;;;;;;13.64;73.04;100620.03;5035734;28;20484;-72
2023/12/25 08:07:28;;;;;;;114.03;108.82;;;;;;;13.62;73.15;100620.28;5022014;28;20530;-71
2023/12/25 08:09:53;;;;;;;117.68;112.57;;;;;;;13.60;73.13;100616.19;5019616;28;20109;-73
2023/12/25 08:12:19;;;;;;;116.00;110.70;;;;;;;13.60;73.17;100618.91;5036540;28;20037;-72
2023/12/25 08:14:44;;;;;;;112.60;107.70;;;;;;;13.61;72.79;100624.09;5036882;28;20033;-72
2023/12/25 08:17:10;;;;;;;122.43;116.93;;;;;;;13.61;72.77;100628.69;5019792;28;20413;-71
2023/12/25 08:19:35;;;;;;;112.70;107.85;;;;;;;13.60;73.09;100633.28;5038244;28;20029;-72
2023/12/25 08:22:01;;;;;;;111.45;106.57;;;;;;;13.60;73.10;100637.91;5024638;28;20397;-75
2023/12/25 08:24:26;;;;;;;115.32;110.30;;;;;;;13.60;73.15;100625.16;5026911;28;20033;-73
2023/12/25 08:26:51;;;;;;;114.35;109.40;;;;;;;13.61;73.11;100640.38;5043721;28;20084;-72
2023/12/25 08:29:19;;;;;;;116.57;111.22;;;;;;;13.62;73.37;100633.84;5013714;28;20393;-74
2023/12/25 08:31:44;;;;;;;117.75;112.50;;;;;;;13.64;72.88;100636.31;5039719;28;20045;-73
2023/12/25 08:34:09;;;;;;;111.55;106.45;;;;;;;13.62;72.93;100633.03;5018898;28;20025;-73
2023/12/25 08:36:35;;;;;;;113.45;108.45;;;;;;;13.58;72.83;100627.34;5036651;28;20208;-72
2023/12/25 08:39:00;;;;;;;108.65;103.82;;;;;;;13.57;73.20;100624.88;5032434;28;20033;-74
2023/12/25 08:41:26;;;;;;;114.10;109.00;;;;;;;13.56;73.30;100640.34;5042133;28;20033;-71
2023/12/25 08:43:51;;;;;;;111.93;107.05;;;;;;;13.56;73.11;100648.50;5043149;28;20453;-71
2023/12/25 08:46:17;;;;;;;108.45;103.45;;;;;;;13.56;73.10;100640.34;5040809;28;20033;-71
2023/12/25 08:48:43;;;;;;;105.90;101.25;;;;;;;13.56;73.05;100653.09;5042706;28;20041;-71
2023/12/25 08:51:08;;;;;;;105.47;100.72;;;;;;;13.56;73.12;100647.69;5038102;28;20033;-71
2023/12/25 08:53:33;;;;;;;108.43;103.65;;;;;;;13.56;73.18;100648.50;5024606;28;20058;-71
2023/12/25 08:56:00;;;;;;;107.10;102.35;;;;;;;13.56;73.03;100647.69;5014445;28;20096;-71
2023/12/25 08:58:26;;;;;;;103.03;98.53;;;;;;;13.57;73.12;100638.44;5036403;28;20047;-71
2023/12/25 09:00:52;;;;;;;106.18;101.65;;;;;;;13.56;73.12;100639.53;5043900;28;20124;-72
2023/12/25 09:03:17;;;;;;;109.35;104.55;;;;;;;13.56;73.63;100634.09;5032755;28;20037;-71
2023/12/25 09:05:43;;;;;;;116.35;111.35;;;;;;;13.57;73.07;100644.69;5034826;28;20061;-72
2023/12/25 09:08:09;;;;;;;110.40;105.50;;;;;;;13.57;73.33;100643.88;5036111;28;20044;-71
2023/12/25 09:10:35;;;;;;;107.03;102.28;;;;;;;13.56;73.46;100647.69;5031910;28;20125;-71
2023/12/25 09:13:00;;;;;;;106.57;101.88;;;;;;;13.56;73.48;100656.63;5016809;28;20113;-71
2023/12/25 09:15:26;;;;;;;106.93;102.22;;;;;;;13.58;73.52;100667.19;5024539;28;20120;-71
2023/12/25 09:17:51;;;;;;;104.97;100.47;;;;;;;13.58;73.11;100664.50;5035521;28;20033;-72
2023/12/25 09:20:17;;;;;;;111.70;106.70;;;;;;;13.57;73.32;100671.81;5049963;28;20071;-71
2023/12/25 09:22:44;;;;;;;107.32;102.18;;;;;;;13.58;73.55;100689.75;5033302;28;20378;-72
2023/12/25 09:25:09;;;;;;;107.88;103.20;;;;;;;13.60;73.55;100689.47;5021176;28;20123;-71
2023/12/25 09:27:35;;;;;;;110.70;105.78;;;;;;;13.60;73.25;100689.47;5041676;28;20194;-72
2023/12/25 09:30:01;;;;;;;104.47;99.80;;;;;;;13.61;73.26;100701.97;5043144;28;20401;-71
2023/12/25 09:32:27;;;;;;;108.32;103.57;;;;;;;13.62;73.42;100714.47;5050610;28;20036;-71
2023/12/25 09:34:52;;;;;;;109.50;104.63;;;;;;;13.61;73.12;100726.41;5027513;28;20485;-71
2023/12/25 09:37:18;;;;;;;107.18;102.43;;;;;;;13.62;73.25;100717.16;5044406;28;20037;-72
2023/12/25 09:39:43;;;;;;;107.18;102.50;;;;;;;13.62;73.27;100717.97;5033744;28;20393;-71
2023/12/25 09:42:10;;;;;;;110.05;105.10;;;;;;;13.63;73.42;100735.06;5017819;28;20478;-72
2023/12/25 09:44:37;;;;;;;109.72;105.03;;;;;;;13.64;73.51;100739.44;5021948;28;20030;-70
2023/12/25 09:47:06;;;;;;;109.35;104.63;;;;;;;13.61;72.83;100729.13;5026837;28;20028;-70
2023/12/25 09:49:34;;;;;;;;;;;;;;;13.60;72.92;100741.84;5043977;28;20037;-70
2023/12/25 09:52:00;;;;;;;105.68;101.15;;;;;;;13.58;72.93;100730.47;5044120;28;19917;-69
2023/12/25 09:54:25;;;;;;;104.18;99.65;;;;;;;13.55;73.12;100720.09;5036048;28;20054;-71
2023/12/25 09:56:52;;;;;;;104.85;100.38;;;;;;;13.53;73.39;100732.31;5030450;28;20042;-70
2023/12/25 09:59:19;;;;;;;107.20;102.53;;;;;;;13.51;73.29;100729.06;5035256;28;20037;-71
2023/12/25 10:01:44;;;;;;;105.22;100.72;;;;;;;13.51;73.57;100732.59;5037202;28;20037;-71
2023/12/25 10:04:10;;;;;;;108.13;103.45;;;;;;;13.51;73.56;100735.31;5028035;28;20452;-72
2023/12/25 10:06:35;;;;;;;109.45;104.72;;;;;;;13.52;73.00;100752.41;5019215;28;20483;-72
2023/12/25 10:09:01;;;;;;;106.43;101.88;;;;;;;13.52;73.05;100755.09;5040253;28;20071;-71
2023/12/25 10:11:26;;;;;;;106.45;101.75;;;;;;;13.51;73.36;100753.50;5034173;28;20075;-71
2023/12/25 10:13:52;;;;;;;105.18;100.65;;;;;;;13.52;73.62;100752.41;5020006;28;20053;-70
2023/12/25 10:16:18;;;;;;;108.28;103.57;;;;;;;13.53;73.25;100768.44;5017551;28;20037;-70
2023/12/25 10:18:43;;;;;;;106.07;101.50;;;;;;;13.52;73.48;100755.09;5026444;28;20038;-71
2023/12/25 10:21:09;;;;;;;107.07;102.47;;;;;;;13.52;73.04;100765.97;5022767;28;20480;-71
2023/12/25 10:23:36;;;;;;;103.15;98.75;;;;;;;13.51;73.21;100757.00;5026937;28;20065;-71
2023/12/25 10:26:03;;;;;;;109.97;105.20;;;;;;;13.49;72.97;100770.03;5013815;28;20068;-70
2023/12/25 10:28:31;;;;;;;109.65;104.85;;;;;;;13.48;73.44;100764.84;5022644;28;20124;-71
2023/12/25 10:31:02;;;;;;;111.25;106.50;;;;;;;13.47;73.14;100755.06;5029258;28;20033;-70
2023/12/25 10:33:28;;;;;;;111.15;106.32;;;;;;;13.48;73.09;100752.13;5020816;28;20033;-71
2023/12/25 10:36:04;;;;;;;109.40;104.72;;;;;;;13.48;73.53;100743.97;5038709;28;20033;-70
2023/12/25 10:38:35;;;;;;;107.45;102.65;;;;;;;13.50;73.65;100730.13;5027471;28;20037;-70
2023/12/25 10:41:20;;;;;;;110.38;105.63;;;;;;;13.50;73.35;100747.22;5032549;28;20430;-71
2023/12/25 10:43:56;;;;;;;108.82;104.22;;;;;;;13.50;73.05;100743.69;5027825;28;20125;-70
2023/12/25 10:46:24;;;;;;;111.32;106.43;;;;;;;13.50;73.40;100740.97;5018912;28;20052;-70
2023/12/25 10:48:55;;;;;;;110.18;105.05;;;;;;;13.50;73.54;100746.41;5032955;28;20455;-71